Time;durP1;ratioP1;P1;durP2;ratioP2;P2;SDS_P1;SDS_P2;PMS_P1;PMS_P2;Temp;Humidity;BMP_temperature;BMP_pressure;BME280_temperature;BME280_humidity;BME280_pressure;Samples;Min_cycle;Max_cycle;Signal;HPM_P1;HPM_P2
2022/10/22 00:01:37;;;;;;;96.25;29.92;;;;;;;12.60;100.00;92510.88;4955896;28;20031;-76
2022/10/22 00:04:04;;;;;;;101.10;32.58;;;;;;;12.60;100.00;92513.50;4954707;29;20039;-78
2022/10/22 00:06:29;;;;;;;94.13;33.15;;;;;;;12.61;100.00;92503.78;4954639;29;20086;-78
2022/10/22 00:08:55;;;;;;;105.85;33.08;;;;;;;12.58;100.00;92499.91;4955246;28;20039;-77
2022/10/22 00:11:20;;;;;;;85.93;30.63;;;;;;;12.59;100.00;92490.19;4954858;29;20035;-77
2022/10/22 00:13:50;;;;;;;89.70;32.28;;;;;;;12.62;100.00;92487.72;4955055;29;20121;-77
2022/10/22 00:16:15;;;;;;;86.85;30.42;;;;;;;12.81;100.00;92486.75;4954485;29;20515;-78
2022/10/22 00:18:41;;;;;;;79.93;28.55;;;;;;;12.72;100.00;92489.34;4938603;29;20027;-77
2022/10/22 00:21:27;;;;;;;92.53;30.83;;;;;;;12.70;100.00;92487.03;4955538;29;20555;-78
2022/10/22 00:23:54;;;;;;;82.85;30.63;;;;;;;12.74;100.00;92486.41;4955445;29;20053;-78
2022/10/22 00:26:21;;;;;;;81.68;28.95;;;;;;;12.67;100.00;92477.09;4955357;29;20051;-77
2022/10/22 00:28:46;;;;;;;83.50;29.25;;;;;;;12.73;100.00;92484.88;4938062;29;20501;-77
2022/10/22 00:31:14;;;;;;;94.03;30.65;;;;;;;12.67;100.00;92482.34;4954526;29;20035;-77
2022/10/22 00:33:40;;;;;;;80.55;30.65;;;;;;;12.70;100.00;92481.00;4954132;29;20047;-77
2022/10/22 00:39:29;;;;;;;78.80;29.55;;;;;;;12.73;100.00;92484.88;4955686;29;20035;-77
2022/10/22 00:41:55;;;;;;;82.30;29.90;;;;;;;12.78;100.00;92471.63;4938449;29;20042;-79
2022/10/22 00:44:59;;;;;;;68.05;24.90;;;;;;;12.77;100.00;92491.84;4954092;29;20136;-78
2022/10/22 00:47:30;;;;;;;66.72;27.75;;;;;;;12.61;100.00;92483.56;4955471;29;20050;-77
2022/10/22 00:49:57;;;;;;;86.57;28.42;;;;;;;12.59;100.00;92483.09;4954107;29;20074;-78
2022/10/22 00:52:44;;;;;;;71.00;27.95;;;;;;;12.59;100.00;92469.94;4953564;29;20031;-78
2022/10/22 00:55:11;;;;;;;69.97;23.50;;;;;;;12.65;100.00;92463.50;4954842;29;20039;-78
2022/10/22 00:57:36;;;;;;;71.15;23.90;;;;;;;12.64;100.00;92458.56;4955303;29;20070;-78
2022/10/22 01:03:10;;;;;;;68.95;23.17;;;;;;;12.65;100.00;92468.75;4955385;28;20035;-78
2022/10/22 01:06:00;;;;;;;76.10;24.83;;;;;;;12.76;100.00;92458.78;4937985;29;20031;-77
2022/10/22 01:09:04;;;;;;;88.25;28.42;;;;;;;12.76;100.00;92456.16;4953987;29;20051;-78
2022/10/22 01:11:47;;;;;;;74.57;23.70;;;;;;;12.96;100.00;92460.13;4951493;29;20047;-78
2022/10/22 01:14:25;;;;;;;75.43;25.90;;;;;;;12.93;100.00;92462.59;4954210;29;20491;-77
2022/10/22 01:20:32;;;;;;;52.83;18.25;;;;;;;12.95;100.00;92442.81;4953823;28;20497;-77
2022/10/22 01:23:39;;;;;;;51.22;19.60;;;;;;;12.97;100.00;92442.50;4954314;28;20426;-77
2022/10/22 01:26:27;;;;;;;61.75;20.58;;;;;;;12.95;100.00;92448.09;4954731;28;20114;-77
2022/10/22 01:29:15;;;;;;;54.03;19.25;;;;;;;12.96;100.00;92436.47;4954378;29;20039;-77
2022/10/22 01:31:45;;;;;;;53.22;19.70;;;;;;;12.87;100.00;92454.81;4954137;28;20378;-77
2022/10/22 01:34:15;;;;;;;55.90;19.98;;;;;;;12.84;100.00;92457.28;4952993;29;20059;-78
2022/10/22 01:37:01;;;;;;;37.28;15.07;;;;;;;12.81;100.00;92444.75;4954441;28;20617;-77
2022/10/22 01:39:29;;;;;;;31.73;12.98;;;;;;;12.80;100.00;92445.81;4953272;29;20125;-77
2022/10/22 01:41:56;;;;;;;27.50;12.25;;;;;;;12.76;100.00;92448.25;4954636;29;20035;-77
2022/10/22 01:48:05;;;;;;;28.23;10.75;;;;;;;12.73;100.00;92453.34;4954775;29;20046;-77
2022/10/22 01:50:36;;;;;;;38.65;16.40;;;;;;;12.84;100.00;92463.31;4952718;29;20039;-77
2022/10/22 01:53:20;;;;;;;41.33;15.40;;;;;;;12.83;100.00;92455.72;4952410;29;20094;-77
2022/10/22 01:56:13;;;;;;;35.33;14.60;;;;;;;12.75;100.00;92451.22;4953564;29;20110;-78
2022/10/22 01:59:00;;;;;;;29.85;12.55;;;;;;;12.71;100.00;92451.78;4952985;29;20050;-78
2022/10/22 02:01:31;;;;;;;30.38;12.10;;;;;;;12.67;100.00;92442.94;4954238;28;20035;-78
2022/10/22 02:04:26;;;;;;;30.63;12.40;;;;;;;12.73;100.00;92448.09;4953997;28;20042;-77
2022/10/22 02:06:56;;;;;;;33.50;13.88;;;;;;;12.68;100.00;92441.91;4952518;29;20069;-77
2022/10/22 02:09:42;;;;;;;26.27;11.43;;;;;;;12.68;100.00;92446.38;4954487;28;20035;-77
2022/10/22 02:12:09;;;;;;;25.15;10.23;;;;;;;12.66;100.00;92438.78;4954391;29;20039;-77
2022/10/22 02:14:40;;;;;;;21.67;9.82;;;;;;;12.64;100.00;92438.31;4937324;29;20031;-78
2022/10/22 02:17:12;;;;;;;24.02;9.85;;;;;;;12.64;100.00;92435.69;4953976;28;20031;-78
2022/10/22 02:19:43;;;;;;;;;;;;;;;12.66;100.00;92444.03;4953180;29;20043;-78
2022/10/22 02:22:08;;;;;;;37.75;15.48;;;;;;;12.70;100.00;92444.22;4954480;29;19949;-77
2022/10/22 02:24:34;;;;;;;42.92;16.45;;;;;;;12.68;100.00;92438.50;4953297;29;20035;-77
2022/10/22 02:27:13;;;;;;;40.78;16.98;;;;;;;12.69;100.00;92448.69;4954534;28;20049;-77
2022/10/22 02:29:52;;;;;;;40.65;16.67;;;;;;;12.67;100.00;92444.81;4953277;29;20069;-78
2022/10/22 02:32:22;;;;;;;33.70;15.13;;;;;;;12.64;100.00;92443.56;4954490;28;20493;-77
2022/10/22 02:34:50;;;;;;;33.47;15.45;;;;;;;12.68;100.00;92449.78;4955942;29;20051;-78
2022/10/22 02:37:17;;;;;;;34.28;13.57;;;;;;;12.86;100.00;92444.63;4956859;29;20090;-79
2022/10/22 02:39:43;;;;;;;30.35;13.15;;;;;;;12.75;100.00;92456.47;4957498;28;20085;-78
2022/10/22 02:42:11;;;;;;;26.75;13.48;;;;;;;12.68;100.00;92455.03;4958022;28;20038;-79
2022/10/22 02:44:37;;;;;;;22.85;10.38;;;;;;;12.67;100.00;92450.84;4957083;29;20453;-79
2022/10/22 02:47:03;;;;;;;19.48;9.05;;;;;;;12.68;100.00;92441.91;4956439;29;20039;-78
2022/10/22 02:49:47;;;;;;;17.63;7.72;;;;;;;12.65;100.00;92445.13;4940435;29;20039;-78
2022/10/22 02:52:13;;;;;;;19.27;7.95;;;;;;;12.70;100.00;92450.25;4957074;28;20041;-78
2022/10/22 02:54:38;;;;;;;17.02;7.30;;;;;;;12.74;100.00;92449.66;4956130;29;20031;-78
2022/10/22 02:57:05;;;;;;;19.60;6.95;;;;;;;12.79;100.00;92465.28;4957421;28;20102;-78
2022/10/22 02:59:30;;;;;;;18.98;7.70;;;;;;;12.73;100.00;92456.75;4957162;28;20050;-78
2022/10/22 03:01:56;;;;;;;19.98;8.20;;;;;;;12.70;100.00;92452.09;4955536;29;20437;-78
2022/10/22 03:04:21;;;;;;;13.02;6.53;;;;;;;12.68;100.00;92451.63;4955451;29;20368;-78
2022/10/22 03:06:49;;;;;;;14.07;7.15;;;;;;;12.76;100.00;92461.41;4955291;29;20105;-79
2022/10/22 03:09:15;;;;;;;14.95;6.68;;;;;;;12.76;100.00;92463.25;4956906;29;20047;-79
2022/10/22 03:11:40;;;;;;;15.63;6.95;;;;;;;12.69;100.00;92464.44;4955791;29;20039;-78
2022/10/22 03:14:06;;;;;;;11.65;6.30;;;;;;;12.67;100.00;92461.34;4956952;28;20039;-78
2022/10/22 03:16:32;;;;;;;19.00;7.22;;;;;;;12.66;100.00;92459.78;4956977;28;20027;-79
2022/10/22 03:18:57;;;;;;;17.20;8.20;;;;;;;12.64;100.00;92458.56;4939316;29;20070;-78
2022/10/22 03:21:44;;;;;;;14.70;6.97;;;;;;;12.63;100.00;92463.03;4955678;29;20035;-78
2022/10/22 03:24:15;;;;;;;13.57;6.07;;;;;;;12.64;100.00;92469.06;4955970;29;20106;-77
2022/10/22 03:26:42;;;;;;;14.23;5.68;;;;;;;12.65;100.00;92471.41;4956879;28;20039;-77
2022/10/22 03:33:01;;;;;;;13.70;5.95;;;;;;;12.66;100.00;92469.53;4956806;29;20508;-78
2022/10/22 03:35:46;;;;;;;20.13;7.97;;;;;;;12.66;100.00;92472.16;4956502;28;20043;-76
2022/10/22 03:38:13;;;;;;;15.52;7.32;;;;;;;12.64;100.00;92467.19;4955230;29;20031;-77
2022/10/22 03:40:40;;;;;;;17.30;8.00;;;;;;;12.61;100.00;92462.56;4955236;29;20031;-77
2022/10/22 03:43:48;;;;;;;19.15;9.75;;;;;;;12.63;100.00;92473.53;4955062;28;20027;-77
2022/10/22 03:46:14;;;;;;;23.00;10.40;;;;;;;12.62;100.00;92473.81;4954801;29;20050;-77
2022/10/22 03:48:39;;;;;;;22.08;9.90;;;;;;;12.63;100.00;92484.03;4922833;29;20039;-77
2022/10/22 03:51:06;;;;;;;22.83;10.88;;;;;;;12.61;100.00;92477.50;4953592;29;20046;-77
2022/10/22 03:53:32;;;;;;;22.75;9.45;;;;;;;12.61;100.00;92482.75;4954060;29;20516;-78
2022/10/22 03:55:59;;;;;;;24.48;9.85;;;;;;;12.60;100.00;92478.59;4955216;28;20035;-77
2022/10/22 03:58:25;;;;;;;25.42;11.02;;;;;;;12.59;100.00;92479.69;4951611;29;20537;-76
2022/10/22 04:00:51;;;;;;;19.70;9.85;;;;;;;12.53;100.00;92465.88;4954484;29;20039;-76
2022/10/22 04:03:17;;;;;;;20.98;10.00;;;;;;;12.60;100.00;92482.00;4949064;29;20466;-77
2022/10/22 04:05:42;;;;;;;19.23;9.98;;;;;;;12.60;100.00;92484.63;4950514;29;20050;-77
2022/10/22 04:08:08;;;;;;;23.10;10.30;;;;;;;12.61;100.00;92488.81;4952696;29;20051;-78
2022/10/22 04:10:34;;;;;;;24.83;10.43;;;;;;;12.60;100.00;92487.25;4954282;28;20062;-77
2022/10/22 04:12:59;;;;;;;24.25;10.82;;;;;;;12.57;100.00;92476.56;4953905;28;20130;-77
2022/10/22 04:15:27;;;;;;;24.02;11.40;;;;;;;12.58;100.00;92473.63;4953492;29;20501;-76
2022/10/22 04:17:52;;;;;;;24.98;11.38;;;;;;;12.55;100.00;92470.84;4954302;29;20031;-77
2022/10/22 04:20:18;;;;;;;23.98;10.73;;;;;;;12.58;100.00;92476.25;4938651;29;20066;-77
2022/10/22 04:22:44;;;;;;;25.70;10.93;;;;;;;12.57;100.00;92473.94;4935501;29;20043;-77
2022/10/22 04:25:09;;;;;;;28.08;11.70;;;;;;;12.56;100.00;92475.00;4944762;29;20028;-78
2022/10/22 04:27:35;;;;;;;27.45;11.02;;;;;;;12.55;100.00;92466.38;4953252;29;20175;-77
2022/10/22 04:30:01;;;;;;;22.52;10.32;;;;;;;12.53;100.00;92471.13;4954073;28;20429;-77
2022/10/22 04:32:27;;;;;;;24.52;11.55;;;;;;;12.54;100.00;92480.56;4953893;28;20070;-77
2022/10/22 04:34:53;;;;;;;24.63;10.65;;;;;;;12.55;100.00;92476.88;4952883;29;20047;-77
2022/10/22 04:37:18;;;;;;;28.08;11.30;;;;;;;12.56;100.00;92486.28;4954070;29;20106;-77
2022/10/22 04:39:44;;;;;;;23.10;9.48;;;;;;;12.57;100.00;92482.59;4952451;29;20019;-77
2022/10/22 04:42:10;;;;;;;19.35;9.18;;;;;;;12.59;100.00;92483.09;4953997;29;20042;-76
2022/10/22 04:44:36;;;;;;;21.25;9.45;;;;;;;12.57;100.00;92487.84;4952521;29;20043;-77
2022/10/22 04:47:01;;;;;;;23.80;9.95;;;;;;;12.56;100.00;92488.91;4934210;29;20393;-78
2022/10/22 04:49:27;;;;;;;26.42;9.77;;;;;;;12.55;100.00;92490.00;4946433;29;20031;-78
2022/10/22 04:51:52;;;;;;;22.55;9.65;;;;;;;12.56;100.00;92488.91;4934886;29;20122;-78
2022/10/22 04:54:18;;;;;;;22.52;10.30;;;;;;;12.55;100.00;92489.22;4953873;28;20086;-77
2022/10/22 04:56:43;;;;;;;24.48;10.05;;;;;;;12.54;100.00;92477.94;4952398;28;20493;-77
2022/10/22 04:59:11;;;;;;;23.98;10.43;;;;;;;12.55;100.00;92479.50;4953331;28;20070;-77
2022/10/22 05:01:43;;;;;;;21.23;10.50;;;;;;;12.57;100.00;92487.84;4952597;29;20039;-77
2022/10/22 05:04:12;;;;;;;21.45;10.05;;;;;;;12.55;100.00;92483.97;4936824;29;20400;-78
2022/10/22 05:06:37;;;;;;;22.63;9.73;;;;;;;12.58;100.00;92488.63;4951006;28;20203;-78
2022/10/22 05:09:06;;;;;;;20.73;9.77;;;;;;;12.57;100.00;92487.84;4949949;28;20157;-77
2022/10/22 05:11:37;;;;;;;23.20;11.27;;;;;;;12.59;100.00;92493.59;4953061;28;20409;-78
2022/10/22 05:14:05;;;;;;;20.33;10.68;;;;;;;12.57;100.00;92484.47;4946264;29;20657;-78
2022/10/22 05:16:32;;;;;;;19.10;8.13;;;;;;;12.57;100.00;92484.47;4948462;28;20098;-78
2022/10/22 05:18:59;;;;;;;15.48;8.05;;;;;;;12.56;100.00;92475.78;4953749;29;20066;-78
2022/10/22 05:21:25;;;;;;;16.98;7.15;;;;;;;12.58;100.00;92476.25;4951583;28;20067;-78
2022/10/22 05:23:52;;;;;;;18.85;7.97;;;;;;;12.58;100.00;92483.38;4952934;28;20023;-78
2022/10/22 05:26:19;;;;;;;19.20;8.32;;;;;;;12.58;100.00;92486.00;4952328;29;20047;-78
2022/10/22 05:28:48;;;;;;;17.55;8.63;;;;;;;12.58;100.00;92483.38;4939931;29;20066;-78
2022/10/22 05:31:15;;;;;;;16.67;8.55;;;;;;;12.58;100.00;92494.63;4938380;29;20031;-77
2022/10/22 05:33:41;;;;;;;18.33;8.82;;;;;;;12.60;100.00;92494.34;4953176;28;20040;-77
2022/10/22 05:36:12;;;;;;;20.55;8.93;;;;;;;12.57;100.00;92498.34;4952760;28;20324;-77
2022/10/22 05:38:38;;;;;;;18.60;8.85;;;;;;;12.60;100.00;92503.00;4951510;29;20070;-78
2022/10/22 05:41:07;;;;;;;20.85;9.10;;;;;;;12.52;100.00;92495.84;4954074;28;20066;-79
2022/10/22 05:43:33;;;;;;;44.15;21.20;;;;;;;12.58;100.00;92505.16;4952286;28;20097;-77
2022/10/22 05:46:10;;;;;;;56.95;28.50;;;;;;;12.58;100.00;92507.00;4948587;29;20030;-77
2022/10/22 05:48:37;;;;;;;25.08;12.40;;;;;;;12.57;100.00;92508.84;4949356;29;20031;-78
2022/10/22 05:51:09;;;;;;;19.33;9.80;;;;;;;12.56;100.00;92509.91;4950299;29;20476;-77
2022/10/22 05:53:35;;;;;;;;;;;;;;;12.59;100.00;92508.56;4960934;28;20036;-78
2022/10/22 05:56:03;;;;;;;27.80;10.45;;;;;;;12.59;100.00;92513.81;4952937;29;19946;-77
2022/10/22 05:58:29;;;;;;;19.73;9.40;;;;;;;12.59;100.00;92517.22;4948511;28;20129;-78
2022/10/22 06:01:01;;;;;;;26.50;10.63;;;;;;;12.59;100.00;92517.22;4952764;28;20409;-77
2022/10/22 06:03:27;;;;;;;22.95;10.23;;;;;;;12.60;100.00;92523.25;4950462;29;20031;-76
2022/10/22 06:05:53;;;;;;;26.90;11.75;;;;;;;12.62;100.00;92526.34;4951447;28;20031;-78
2022/10/22 06:08:18;;;;;;;25.65;11.02;;;;;;;12.63;100.00;92533.94;4954028;28;20067;-78
2022/10/22 06:10:44;;;;;;;24.15;11.32;;;;;;;12.65;100.00;92536.25;4952393;29;20042;-79
2022/10/22 06:13:10;;;;;;;27.13;11.27;;;;;;;12.64;100.00;92545.97;4952950;29;20163;-78
2022/10/22 06:15:35;;;;;;;26.35;11.93;;;;;;;12.65;100.00;92541.50;4954584;28;20039;-78
2022/10/22 06:18:01;;;;;;;26.85;12.55;;;;;;;12.65;100.00;92547.56;4955902;28;20039;-77
2022/10/22 06:20:26;;;;;;;36.72;13.77;;;;;;;12.65;100.00;92547.56;4954341;28;20043;-78
2022/10/22 06:22:52;;;;;;;24.70;11.57;;;;;;;12.66;100.00;92551.72;4953984;28;20035;-78
2022/10/22 06:25:17;;;;;;;25.70;10.90;;;;;;;12.67;100.00;92555.88;4947445;29;20036;-77
2022/10/22 06:27:47;;;;;;;21.80;10.00;;;;;;;12.70;100.00;92560.56;4955586;29;20442;-78
2022/10/22 06:30:13;;;;;;;21.35;10.23;;;;;;;12.70;100.00;92560.56;4953316;29;20031;-77
2022/10/22 06:32:38;;;;;;;26.65;11.18;;;;;;;12.70;100.00;92568.44;4934673;29;20066;-77
2022/10/22 06:35:04;;;;;;;27.73;10.80;;;;;;;12.69;100.00;92569.50;4951026;29;20054;-79
2022/10/22 06:37:30;;;;;;;29.27;12.70;;;;;;;12.73;100.00;92574.19;4954624;29;20047;-78
2022/10/22 06:39:55;;;;;;;23.85;11.95;;;;;;;12.74;100.00;92578.34;4955950;28;20042;-79
2022/10/22 06:42:21;;;;;;;20.27;8.73;;;;;;;12.76;100.00;92573.56;4956027;28;20035;-77
2022/10/22 06:44:48;;;;;;;14.27;6.95;;;;;;;12.81;100.00;92571.63;4953877;29;20178;-79
2022/10/22 06:47:13;;;;;;;15.27;7.25;;;;;;;12.84;100.00;92575.50;4954243;29;20114;-77
2022/10/22 06:49:39;;;;;;;16.38;6.25;;;;;;;12.96;100.00;92573.09;4955733;28;20035;-77
2022/10/22 06:52:04;;;;;;;23.63;10.32;;;;;;;13.22;100.00;92575.94;4951628;29;20035;-78
2022/10/22 06:54:30;;;;;;;23.10;8.73;;;;;;;13.02;100.00;92571.94;4952052;28;20043;-78
2022/10/22 06:56:55;;;;;;;19.85;8.90;;;;;;;13.11;100.00;92583.28;4938131;29;20046;-78
2022/10/22 06:59:21;;;;;;;20.42;6.70;;;;;;;13.01;100.00;92582.72;4954908;29;20047;-78
2022/10/22 07:01:46;;;;;;;15.23;5.18;;;;;;;13.05;100.00;92584.47;4954858;28;20046;-78
2022/10/22 07:04:12;;;;;;;9.10;5.22;;;;;;;13.04;100.00;92582.91;4950345;29;20028;-78
2022/10/22 07:06:37;;;;;;;16.23;8.02;;;;;;;12.98;100.00;92581.47;4953729;28;20126;-78
2022/10/22 07:09:03;;;;;;;13.10;5.90;;;;;;;12.99;100.00;92593.56;4954234;29;20077;-78
2022/10/22 07:11:39;;;;;;;9.00;4.82;;;;;;;13.02;100.00;92598.19;4954270;29;20067;-78
2022/10/22 07:14:05;;;;;;;15.55;5.88;;;;;;;13.09;100.00;92603.03;4954431;28;20102;-78
2022/10/22 07:16:30;;;;;;;17.90;8.77;;;;;;;13.15;100.00;92601.06;4953771;29;20043;-77
2022/10/22 07:18:56;;;;;;;17.05;6.95;;;;;;;13.21;100.00;92610.38;4954518;28;20034;-78
2022/10/22 07:21:22;;;;;;;17.30;7.93;;;;;;;13.25;100.00;92606.09;4949069;28;20045;-78
2022/10/22 07:23:47;;;;;;;17.95;8.00;;;;;;;13.29;100.00;92601.81;4952803;29;20032;-78
2022/10/22 07:26:15;;;;;;;20.08;9.07;;;;;;;13.32;100.00;92601.97;4956722;28;20027;-77
2022/10/22 07:28:41;;;;;;;24.83;10.68;;;;;;;13.39;100.00;92603.41;4965303;28;20043;-77
2022/10/22 07:31:09;;;;;;;24.55;11.50;;;;;;;13.46;100.00;92603.78;4952860;28;20043;-78
2022/10/22 07:33:35;;;;;;;24.35;10.70;;;;;;;13.58;100.00;92619.00;4946727;28;20110;-77
2022/10/22 07:36:04;;;;;;;17.38;8.48;;;;;;;13.95;100.00;92626.47;4937577;29;20063;-78
2022/10/22 07:38:30;;;;;;;24.73;7.57;;;;;;;14.91;100.00;92632.03;4952148;29;20035;-78
2022/10/22 07:40:56;;;;;;;19.60;6.93;;;;;;;15.47;100.00;92624.28;4935254;29;20023;-78
2022/10/22 07:43:23;;;;;;;16.40;7.05;;;;;;;15.53;100.00;92622.22;4944775;29;20035;-76
2022/10/22 07:45:49;;;;;;;18.48;8.30;;;;;;;15.34;100.00;92628.63;4956711;28;20035;-76
2022/10/22 07:48:14;;;;;;;23.80;9.50;;;;;;;15.16;100.00;92627.84;4954031;28;20504;-77
2022/10/22 07:50:40;;;;;;;8.05;3.95;;;;;;;14.95;100.00;92626.91;4946686;29;20039;-76
2022/10/22 07:53:05;;;;;;;9.00;4.13;;;;;;;14.82;100.00;92628.63;4952907;29;20094;-78
2022/10/22 07:55:32;;;;;;;11.55;5.65;;;;;;;14.81;100.00;92627.06;4954866;28;20027;-78
2022/10/22 07:57:57;;;;;;;83.10;8.20;;;;;;;14.61;100.00;92633.69;4955162;28;20050;-78
2022/10/22 08:00:23;;;;;;;17.58;8.60;;;;;;;14.39;100.00;92642.44;4953679;29;20093;-77
2022/10/22 08:02:48;;;;;;;23.92;8.40;;;;;;;14.32;100.00;92642.88;4953734;29;20118;-77
2022/10/22 08:05:15;;;;;;;28.08;10.77;;;;;;;14.26;100.00;92638.81;4954572;28;20126;-78
2022/10/22 08:07:41;;;;;;;18.52;7.07;;;;;;;14.24;100.00;92638.34;4937545;29;20051;-77
2022/10/22 08:10:08;;;;;;;348.65;13.07;;;;;;;14.20;100.00;92636.63;4954806;28;20408;-78
2022/10/22 08:12:34;;;;;;;109.63;9.13;;;;;;;14.19;100.00;92635.09;4954616;28;20556;-78
2022/10/22 08:15:00;;;;;;;289.83;10.45;;;;;;;13.99;100.00;92639.81;4953125;29;20461;-79
2022/10/22 08:17:26;;;;;;;772.45;25.95;;;;;;;13.85;100.00;92644.41;4954339;28;20062;-79
2022/10/22 08:19:52;;;;;;;1196.20;32.13;;;;;;;13.69;100.00;92649.22;4937038;29;20066;-78
2022/10/22 08:22:17;;;;;;;743.97;31.92;;;;;;;13.68;100.00;92653.72;4953149;29;20071;-78
2022/10/22 08:24:43;;;;;;;94.10;15.55;;;;;;;13.73;100.00;92655.44;4953334;29;20050;-78
2022/10/22 08:27:09;;;;;;;267.88;17.55;;;;;;;13.91;100.00;92662.34;4952951;29;20509;-78
2022/10/22 08:29:34;;;;;;;100.15;20.42;;;;;;;13.94;100.00;92677.56;4953188;28;20090;-78
2022/10/22 08:32:01;;;;;;;69.55;10.95;;;;;;;14.00;100.00;92670.28;4954184;28;20063;-78
2022/10/22 08:34:28;;;;;;;1556.45;47.33;;;;;;;14.08;100.00;92663.53;4954327;28;20158;-77
2022/10/22 08:36:53;;;;;;;1052.88;26.77;;;;;;;13.80;100.00;92674.22;4954611;28;20052;-77
2022/10/22 08:39:19;;;;;;;999.55;30.60;;;;;;;13.65;100.00;92661.44;4954131;28;20061;-77
2022/10/22 08:42:23;;;;;;;257.67;13.98;;;;;;;13.71;100.00;92676.00;4954149;29;20047;-76
2022/10/22 08:44:51;;;;;;;581.08;20.35;;;;;;;13.63;100.00;92685.41;4953616;28;20049;-77
2022/10/22 08:47:43;;;;;;;519.67;20.55;;;;;;;13.52;100.00;92689.38;4952525;29;20031;-76
2022/10/22 08:50:13;;;;;;;1304.13;42.83;;;;;;;13.49;100.00;92689.97;4948482;29;20061;-77
2022/10/22 08:52:43;;;;;;;77.25;15.70;;;;;;;13.44;100.00;92693.50;4953578;28;20050;-78
2022/10/22 08:55:14;;;;;;;254.80;19.27;;;;;;;13.50;100.00;92689.66;4952293;29;20043;-78
2022/10/22 08:57:46;;;;;;;686.30;29.48;;;;;;;13.59;100.00;92684.47;4952504;29;20109;-78
2022/10/22 09:00:27;;;;;;;40.60;16.05;;;;;;;13.70;100.00;92691.03;4953047;29;20375;-78
2022/10/22 09:02:58;;;;;;;102.53;18.33;;;;;;;13.91;100.00;92690.53;4954039;28;20082;-78
2022/10/22 09:05:41;;;;;;;916.30;32.42;;;;;;;13.83;100.00;92681.53;4954051;29;20027;-76
2022/10/22 09:08:10;;;;;;;;;;;;;;;13.86;100.00;92682.78;4952565;28;20114;-77
2022/10/22 09:10:39;;;;;;;503.58;19.88;;;;;;;13.85;100.00;92682.00;4952316;29;19921;-77
2022/10/22 09:13:07;;;;;;;497.48;20.25;;;;;;;13.80;100.00;92687.38;4953971;28;20035;-78
2022/10/22 09:15:32;;;;;;;617.58;24.27;;;;;;;13.68;100.00;92687.16;4952377;29;20047;-77
2022/10/22 09:18:16;;;;;;;88.85;15.43;;;;;;;13.66;100.00;92694.56;4952038;29;20043;-77
2022/10/22 09:21:15;;;;;;;202.90;16.00;;;;;;;13.84;100.00;92684.91;4953379;29;20031;-78
2022/10/22 09:24:03;;;;;;;71.05;16.83;;;;;;;13.80;100.00;92691.84;4947371;29;20508;-78
2022/10/22 09:26:33;;;;;;;25.42;10.75;;;;;;;13.99;100.00;92696.94;4953016;29;20035;-77
2022/10/22 09:29:00;;;;;;;31.65;13.27;;;;;;;14.27;100.00;92700.16;4951944;29;20097;-79
2022/10/22 09:31:28;;;;;;;32.78;13.52;;;;;;;14.65;100.00;92695.22;4951886;29;20027;-78
2022/10/22 09:33:54;;;;;;;28.00;13.10;;;;;;;14.86;100.00;92705.19;4953098;28;20424;-78
2022/10/22 09:36:21;;;;;;;24.13;10.98;;;;;;;14.76;100.00;92704.38;4953092;29;20047;-77
2022/10/22 09:38:50;;;;;;;22.40;11.00;;;;;;;14.77;100.00;92710.44;4951622;29;20344;-78
2022/10/22 09:41:17;;;;;;;21.55;8.73;;;;;;;14.71;100.00;92717.72;4951103;28;20031;-80
2022/10/22 09:43:46;;;;;;;40.45;14.93;;;;;;;14.74;100.00;92717.09;4949138;29;20126;-79
2022/10/22 09:46:19;;;;;;;20.30;8.60;;;;;;;14.94;100.00;92718.38;4953830;29;20469;-78
2022/10/22 09:49:01;;;;;;;18.98;8.20;;;;;;;15.17;100.00;92724.31;4953664;28;20379;-78
2022/10/22 09:51:45;;;;;;;15.05;7.28;;;;;;;15.40;100.00;92719.72;4952123;29;20031;-79
2022/10/22 09:54:23;;;;;;;16.20;8.40;;;;;;;15.39;100.00;92720.78;4948730;29;20459;-76
2022/10/22 09:57:02;;;;;;;32.63;12.65;;;;;;;15.32;100.00;92724.97;4953783;28;20046;-78
2022/10/22 09:59:40;;;;;;;34.13;13.32;;;;;;;15.17;100.00;92721.69;4942766;29;20498;-78
2022/10/22 10:02:13;;;;;;;32.10;13.63;;;;;;;15.18;100.00;92720.59;4951330;29;20050;-80
2022/10/22 10:04:47;;;;;;;24.13;12.55;;;;;;;15.14;100.00;92738.13;4954379;28;20489;-77
2022/10/22 10:07:24;;;;;;;23.75;11.90;;;;;;;15.19;100.00;92735.34;4954006;29;20051;-78
2022/10/22 10:09:52;;;;;;;26.23;11.80;;;;;;;15.17;100.00;92729.59;4935541;29;20047;-78
2022/10/22 10:12:51;;;;;;;21.08;11.15;;;;;;;15.15;100.00;92730.97;4948226;28;20470;-77
2022/10/22 10:15:27;;;;;;;19.73;10.20;;;;;;;15.12;100.00;92729.75;4928024;29;20169;-78
2022/10/22 10:18:05;;;;;;;18.92;10.40;;;;;;;15.23;100.00;92737.38;4947727;28;20040;-81
2022/10/22 10:21:02;;;;;;;16.63;8.88;;;;;;;15.24;100.00;92736.28;4937361;28;20160;-77
2022/10/22 10:23:39;;;;;;;15.88;9.00;;;;;;;15.24;100.00;92733.63;4943445;29;20454;-77
2022/10/22 10:26:42;;;;;;;15.88;8.63;;;;;;;15.28;100.00;92729.31;4952540;28;20081;-76
2022/10/22 10:29:26;;;;;;;24.70;12.43;;;;;;;15.29;100.00;92734.28;4932014;28;20348;-76
2022/10/22 10:32:08;;;;;;;33.13;13.63;;;;;;;15.25;100.00;92741.25;4947062;29;20047;-76
2022/10/22 10:34:51;;;;;;;1104.90;38.88;;;;;;;15.01;100.00;92739.03;4949801;29;20114;-78
2022/10/22 10:37:22;;;;;;;27.35;14.23;;;;;;;14.95;100.00;92743.69;4940477;28;20099;-78
2022/10/22 10:40:06;;;;;;;30.65;15.18;;;;;;;15.02;100.00;92737.16;4948964;28;20045;-77
2022/10/22 10:42:35;;;;;;;32.65;18.17;;;;;;;15.12;100.00;92740.28;4951313;28;20366;-77
2022/10/22 10:45:04;;;;;;;35.63;15.25;;;;;;;15.13;100.00;92741.06;4947749;28;20027;-77
2022/10/22 10:48:01;;;;;;;28.88;15.00;;;;;;;15.08;100.00;92739.34;4951467;28;20584;-77
2022/10/22 10:50:39;;;;;;;31.38;15.70;;;;;;;15.30;100.00;92738.47;4936858;29;20119;-77
2022/10/22 10:53:40;;;;;;;31.73;13.73;;;;;;;15.35;100.00;92742.81;4951522;28;20486;-78
2022/10/22 10:56:24;;;;;;;27.73;14.07;;;;;;;15.28;100.00;92742.50;4919083;29;20063;-77
2022/10/22 10:59:00;;;;;;;23.10;12.07;;;;;;;15.28;100.00;92739.84;4944548;29;20043;-77
2022/10/22 11:01:39;;;;;;;28.38;14.05;;;;;;;15.18;100.00;92738.28;4948549;28;20554;-77
2022/10/22 11:04:42;;;;;;;23.45;11.98;;;;;;;15.18;100.00;92736.44;4955504;29;20379;-79
2022/10/22 11:07:10;;;;;;;;;;;;;;;15.41;100.00;92736.31;4940390;29;20069;-78
2022/10/22 11:09:49;;;;;;;21.67;11.18;;;;;;;15.56;100.00;92741.13;4950615;28;19918;-77
2022/10/22 11:12:33;;;;;;;22.35;10.90;;;;;;;15.51;100.00;92740.50;4953280;28;20405;-77
2022/10/22 11:15:24;;;;;;;19.40;11.25;;;;;;;15.43;100.00;92736.78;4953952;29;20048;-78
2022/10/22 11:17:54;;;;;;;19.23;9.00;;;;;;;15.59;100.00;92735.22;4955323;28;20433;-78
2022/10/22 11:20:52;;;;;;;19.77;11.20;;;;;;;15.76;100.00;92736.31;4952731;28;20519;-79
2022/10/22 11:23:28;;;;;;;20.13;9.70;;;;;;;16.08;100.00;92739.56;4933721;29;20046;-79
2022/10/22 11:25:54;;;;;;;25.33;9.05;;;;;;;16.58;100.00;92733.69;4937904;29;20042;-78
2022/10/22 11:28:32;;;;;;;20.73;8.55;;;;;;;17.01;100.00;92738.78;4935069;29;20035;-79
2022/10/22 11:31:07;;;;;;;16.77;8.85;;;;;;;16.87;100.00;92734.84;4934794;29;20469;-77
2022/10/22 11:34:00;;;;;;;15.15;7.35;;;;;;;16.93;100.00;92736.97;4945341;29;20031;-77
2022/10/22 11:36:28;;;;;;;11.27;6.13;;;;;;;17.48;100.00;92745.81;4952373;28;20065;-78
2022/10/22 11:38:54;;;;;;;19.45;7.45;;;;;;;17.60;100.00;92737.94;4935669;29;20119;-77
2022/10/22 11:41:29;;;;;;;16.60;7.43;;;;;;;17.60;100.00;92740.59;4942886;29;20039;-77
2022/10/22 11:44:08;;;;;;;14.10;7.55;;;;;;;17.65;100.00;92734.31;4946385;29;20037;-79
2022/10/22 11:46:52;;;;;;;7.75;4.47;;;;;;;17.83;100.00;92729.69;4941820;29;20039;-79
2022/10/22 11:49:26;;;;;;;15.20;5.88;;;;;;;18.10;100.00;92734.44;4947416;29;20413;-78